createdAt,value
2022-11-28T00:01:39.953Z,36.40
2022-11-28T00:04:08.493Z,36.40
2022-11-28T00:06:45.593Z,36.40
2022-11-28T00:09:14.131Z,36.40
2022-11-28T00:11:44.773Z,36.30
2022-11-28T00:14:12.614Z,36.30
2022-11-28T00:16:39.898Z,36.30
2022-11-28T00:19:07.919Z,36.30
2022-11-28T00:21:35.811Z,36.40
2022-11-28T00:24:04.254Z,36.40
2022-11-28T00:26:41.459Z,36.50
2022-11-28T00:29:09.754Z,36.50
2022-11-28T00:31:42.767Z,36.30
2022-11-28T00:34:15.269Z,36.40
2022-11-28T00:36:45.782Z,36.50
2022-11-28T00:39:13.917Z,36.40
2022-11-28T00:41:41.545Z,36.50
2022-11-28T00:44:09.033Z,36.40
2022-11-28T00:46:36.870Z,36.40
2022-11-28T00:49:04.118Z,36.50
2022-11-28T00:51:33.511Z,36.50
2022-11-28T00:54:03.932Z,36.60
2022-11-28T00:56:36.117Z,36.60
2022-11-28T00:59:04.551Z,36.70
2022-11-28T01:01:38.897Z,36.50
2022-11-28T01:04:09.776Z,36.60
2022-11-28T01:06:43.240Z,36.60
2022-11-28T01:09:21.016Z,36.70
2022-11-28T01:11:51.834Z,36.80
2022-11-28T01:14:21.991Z,36.70
2022-11-28T01:16:49.467Z,36.70
2022-11-28T01:19:16.860Z,36.70
2022-11-28T01:21:44.313Z,36.80
2022-11-28T01:24:11.889Z,36.70
2022-11-28T01:26:40.576Z,36.70
2022-11-28T01:29:08.621Z,36.80
2022-11-28T01:31:36.032Z,36.80
2022-11-28T01:34:03.358Z,36.80
2022-11-28T01:36:31.724Z,36.80
2022-11-28T01:38:58.672Z,36.90
2022-11-28T01:41:28.317Z,36.80
2022-11-28T01:44:15.490Z,36.80
2022-11-28T01:46:42.673Z,37.00
2022-11-28T01:49:36.012Z,36.80
2022-11-28T01:52:13.359Z,36.90
2022-11-28T01:54:44.219Z,37.00
2022-11-28T01:57:21.332Z,36.90
2022-11-28T02:00:05.649Z,37.00
2022-11-28T02:02:45.984Z,37.10
2022-11-28T02:05:14.371Z,37.10
2022-11-28T02:07:44.115Z,37.00
2022-11-28T02:10:17.171Z,37.00
2022-11-28T02:13:39.756Z,37.00
2022-11-28T02:16:42.039Z,37.20
2022-11-28T02:19:57.324Z,37.20
2022-11-28T02:23:07.972Z,37.20
2022-11-28T02:26:05.175Z,37.10
2022-11-28T02:29:09.993Z,37.10
2022-11-28T02:32:10.614Z,37.20
2022-11-28T02:34:54.207Z,37.00
2022-11-28T02:37:27.238Z,37.20
2022-11-28T02:40:15.003Z,37.10
2022-11-28T02:43:05.456Z,37.10
2022-11-28T02:45:56.353Z,37.30
2022-11-28T02:48:44.477Z,37.20
2022-11-28T02:51:37.829Z,37.30
2022-11-28T02:54:09.573Z,37.30
2022-11-28T02:56:36.852Z,37.10
2022-11-28T02:59:04.734Z,37.10
2022-11-28T03:01:38.671Z,37.20
2022-11-28T03:04:44.853Z,37.20
2022-11-28T03:07:30.145Z,37.30
2022-11-28T03:10:14.863Z,37.40
2022-11-28T03:12:51.991Z,37.30
2022-11-28T03:15:32.191Z,37.30
2022-11-28T03:18:24.775Z,37.40
2022-11-28T03:21:04.974Z,37.40
2022-11-28T03:23:57.736Z,37.30
2022-11-28T03:26:41.459Z,37.40
2022-11-28T03:29:31.251Z,37.40
2022-11-28T03:32:07.002Z,37.40
2022-11-28T03:34:40.857Z,37.40
2022-11-28T03:37:26.750Z,37.30
2022-11-28T03:40:02.088Z,37.50
2022-11-28T03:42:38.337Z,37.40
2022-11-28T03:45:18.864Z,37.30
2022-11-28T03:47:57.100Z,37.30
2022-11-28T03:50:36.271Z,37.30
2022-11-28T03:53:10.447Z,37.40
2022-11-28T03:55:55.469Z,37.40
2022-11-28T03:58:56.564Z,37.50
2022-11-28T04:01:39.951Z,37.60
2022-11-28T04:04:39.068Z,37.40
2022-11-28T04:07:48.846Z,37.50
2022-11-28T04:10:37.105Z,37.50
2022-11-28T04:13:15.657Z,37.50
2022-11-28T04:15:56.513Z,37.40
2022-11-28T04:18:48.806Z,37.50
2022-11-28T04:21:27.046Z,37.60
2022-11-28T04:24:28.960Z,37.50
2022-11-28T04:27:05.792Z,37.50
2022-11-28T04:29:40.092Z,37.60
2022-11-28T04:32:11.872Z,37.50
2022-11-28T04:34:44.901Z,37.50
2022-11-28T04:37:15.546Z,37.60
2022-11-28T04:39:48.217Z,37.50
2022-11-28T04:42:24.080Z,37.50
2022-11-28T04:44:58.702Z,37.50
2022-11-28T04:47:26.725Z,37.50
2022-11-28T04:49:55.133Z,37.60
2022-11-28T04:52:40.920Z,37.60
2022-11-28T04:56:03.811Z,37.70
2022-11-28T04:58:40.473Z,37.60
2022-11-28T05:01:14.457Z,37.60
2022-11-28T05:03:42.967Z,37.60
2022-11-28T05:06:10.893Z,37.60
2022-11-28T05:08:41.539Z,38.20
2022-11-28T05:11:08.627Z,37.60
2022-11-28T05:13:35.701Z,37.60
2022-11-28T05:16:03.574Z,37.60
2022-11-28T05:18:30.556Z,37.60
2022-11-28T05:20:59.394Z,37.60
2022-11-28T05:23:26.692Z,37.60
2022-11-28T05:25:54.764Z,37.60
2022-11-28T05:28:21.732Z,37.60
2022-11-28T05:30:58.305Z,37.70
2022-11-28T05:33:25.387Z,37.70
2022-11-28T05:35:52.309Z,37.60
2022-11-28T05:38:19.648Z,37.70
2022-11-28T05:40:46.721Z,37.70
2022-11-28T05:43:13.800Z,37.60
2022-11-28T05:45:45.537Z,37.60
2022-11-28T05:48:12.636Z,37.70
2022-11-28T05:50:41.894Z,37.70
2022-11-28T05:53:09.738Z,37.70
2022-11-28T05:55:41.318Z,37.70
2022-11-28T05:58:11.442Z,37.80
2022-11-28T06:00:38.973Z,37.70
2022-11-28T06:03:06.253Z,37.80
2022-11-28T06:05:43.267Z,37.80
2022-11-28T06:08:12.702Z,37.80
2022-11-28T06:10:40.315Z,37.80
2022-11-28T06:13:07.772Z,37.70
2022-11-28T06:15:38.238Z,37.80
2022-11-28T06:18:06.218Z,37.80
2022-11-28T06:20:36.923Z,37.80
2022-11-28T06:23:03.904Z,37.80
2022-11-28T06:25:31.054Z,37.80
2022-11-28T06:27:57.977Z,38.10
2022-11-28T06:30:25.309Z,37.80
2022-11-28T06:32:52.435Z,37.90
2022-11-28T06:35:19.479Z,37.80
2022-11-28T06:37:46.552Z,37.80
2022-11-28T06:40:13.993Z,37.80
2022-11-28T06:42:41.009Z,37.80
2022-11-28T06:45:09.577Z,37.80
2022-11-28T06:47:36.615Z,37.90
2022-11-28T06:50:04.090Z,37.90
2022-11-28T06:52:30.954Z,38.00
2022-11-28T06:54:57.919Z,38.10
2022-11-28T06:57:25.457Z,38.20
2022-11-28T06:59:54.802Z,38.30
2022-11-28T07:02:25.074Z,38.40
2022-11-28T07:04:52.213Z,38.70
2022-11-28T07:07:19.262Z,38.60
2022-11-28T07:09:46.424Z,38.60
2022-11-28T07:12:14.893Z,38.70
2022-11-28T07:14:45.103Z,38.80
2022-11-28T07:17:14.996Z,38.90
2022-11-28T07:19:42.225Z,40.30
2022-11-28T07:22:14.195Z,38.90
2022-11-28T07:24:41.275Z,39.00
2022-11-28T07:27:08.729Z,39.40
2022-11-28T07:29:36.901Z,39.00
2022-11-28T07:32:06.376Z,39.00
2022-11-28T07:34:34.230Z,38.80
2022-11-28T07:37:01.493Z,40.10
2022-11-28T07:39:30.343Z,38.90
2022-11-28T07:41:57.525Z,38.90
2022-11-28T07:44:24.618Z,38.80
2022-11-28T07:46:54.301Z,39.40
2022-11-28T07:49:21.327Z,38.70
2022-11-28T07:51:48.768Z,38.60
2022-11-28T07:54:15.974Z,38.80
2022-11-28T07:59:29.976Z,38.70
2022-11-28T08:01:57.204Z,38.70
2022-11-28T08:04:24.318Z,38.70
2022-11-28T08:06:51.368Z,38.50
2022-11-28T08:09:19.595Z,39.10
2022-11-28T08:11:46.638Z,38.50
2022-11-28T08:14:14.407Z,38.50
2022-11-28T08:16:45.037Z,38.40
2022-11-28T08:19:12.313Z,38.40
2022-11-28T08:21:39.512Z,38.50
2022-11-28T08:24:08.204Z,38.50
2022-11-28T08:26:36.088Z,38.60
2022-11-28T08:29:04.471Z,38.60
2022-11-28T08:31:38.632Z,38.60
2022-11-28T08:34:09.516Z,38.60
2022-11-28T08:36:37.826Z,38.60
2022-11-28T08:41:59.781Z,38.60
2022-11-28T08:44:30.328Z,38.50
2022-11-28T08:46:57.531Z,38.60
2022-11-28T08:49:24.642Z,38.60
2022-11-28T08:51:52.051Z,38.60
2022-11-28T08:54:19.270Z,38.50
2022-11-28T08:56:48.448Z,38.60
2022-11-28T08:59:16.000Z,38.50
2022-11-28T09:01:46.066Z,38.40
2022-11-28T09:04:13.168Z,38.40
2022-11-28T09:06:41.622Z,38.50
2022-11-28T09:09:09.164Z,38.40
2022-11-28T09:11:39.420Z,38.40
2022-11-28T09:14:06.998Z,38.30
2022-11-28T09:16:35.039Z,38.40
2022-11-28T09:19:02.355Z,37.80
2022-11-28T09:21:29.341Z,38.20
2022-11-28T09:23:57.254Z,38.20
2022-11-28T09:26:25.731Z,38.10
2022-11-28T09:28:53.711Z,38.20
2022-11-28T09:31:21.172Z,38.20
2022-11-28T09:33:49.521Z,38.20
2022-11-28T09:36:22.899Z,38.20
2022-11-28T09:38:52.650Z,38.20
2022-11-28T09:41:28.683Z,38.30
2022-11-28T09:44:03.404Z,38.10
2022-11-28T09:46:35.999Z,38.20
2022-11-28T09:49:19.990Z,38.10
2022-11-28T09:51:58.481Z,38.20
2022-11-28T09:54:49.180Z,38.10
2022-11-28T09:57:34.598Z,38.10
2022-11-28T10:00:06.647Z,38.00
2022-11-28T10:03:01.822Z,38.00
2022-11-28T10:05:43.317Z,38.00
2022-11-28T10:08:27.442Z,38.00
2022-11-28T10:11:25.338Z,38.00
2022-11-28T10:14:09.885Z,38.00
2022-11-28T10:17:07.593Z,38.30
2022-11-28T10:19:54.297Z,38.20
2022-11-28T10:22:42.187Z,38.10
2022-11-28T10:25:43.181Z,38.00
2022-11-28T10:28:33.333Z,37.80
2022-11-28T10:31:29.817Z,37.90
2022-11-28T10:34:15.661Z,37.70
2022-11-28T10:37:18.652Z,37.50
2022-11-28T10:39:56.717Z,37.60
2022-11-28T10:42:55.996Z,37.60
2022-11-28T10:45:45.789Z,37.50
2022-11-28T10:48:40.709Z,37.70
2022-11-28T10:52:07.397Z,37.60
2022-11-28T10:55:06.853Z,37.40
2022-11-28T10:58:27.045Z,37.60
2022-11-28T11:01:00.432Z,37.60
2022-11-28T11:03:36.081Z,37.70
2022-11-28T11:06:04.229Z,37.80
2022-11-28T11:08:40.169Z,37.80
2022-11-28T11:11:35.103Z,37.90
2022-11-28T11:14:10.873Z,37.80
2022-11-28T11:16:55.896Z,37.90
2022-11-28T11:19:31.018Z,38.00
2022-11-28T11:22:02.600Z,38.00
2022-11-28T11:24:30.832Z,38.10
2022-11-28T11:27:21.615Z,38.20
2022-11-28T11:29:51.593Z,38.00
2022-11-28T11:32:29.630Z,37.90
2022-11-28T11:35:00.493Z,37.80
2022-11-28T11:37:39.093Z,37.90
2022-11-28T11:40:33.015Z,37.80
2022-11-28T11:43:01.683Z,37.70
2022-11-28T11:45:37.893Z,38.40
2022-11-28T11:48:05.439Z,37.80
2022-11-28T11:50:33.187Z,37.70
2022-11-28T11:53:05.988Z,37.70
2022-11-28T11:55:56.177Z,37.80
2022-11-28T11:58:41.374Z,37.50
2022-11-28T12:01:12.057Z,37.40
2022-11-28T12:04:23.712Z,37.30
2022-11-28T12:06:56.765Z,37.20
2022-11-28T12:09:46.960Z,37.30
2022-11-28T12:12:26.961Z,37.20
2022-11-28T12:14:54.242Z,37.20
2022-11-28T12:20:55.637Z,37.30
2022-11-28T12:23:39.372Z,37.30
2022-11-28T12:27:01.076Z,37.10
2022-11-28T12:30:00.994Z,37.10
2022-11-28T12:32:42.958Z,37.20
2022-11-28T12:35:41.386Z,37.10
2022-11-28T12:38:31.474Z,37.10
2022-11-28T12:41:27.636Z,37.20
2022-11-28T12:44:29.709Z,37.10
2022-11-28T12:46:56.585Z,37.20
2022-11-28T12:49:29.703Z,37.20
2022-11-28T12:52:19.838Z,37.20
2022-11-28T12:55:36.247Z,37.10
2022-11-28T12:58:23.958Z,37.20
2022-11-28T13:01:02.555Z,37.20
2022-11-28T13:03:58.123Z,37.10
2022-11-28T13:07:03.022Z,37.10
2022-11-28T13:09:36.331Z,37.10
2022-11-28T13:12:28.115Z,37.10
2022-11-28T13:15:00.601Z,37.10
2022-11-28T13:17:59.560Z,37.20
2022-11-28T13:20:59.477Z,37.10
2022-11-28T13:23:43.985Z,37.10
2022-11-28T13:26:49.010Z,37.10
2022-11-28T13:29:48.278Z,37.10
2022-11-28T13:32:39.758Z,37.00
2022-11-28T13:35:18.367Z,37.10
2022-11-28T13:38:35.713Z,37.10
2022-11-28T13:42:05.849Z,37.10
2022-11-28T13:44:35.272Z,37.10
2022-11-28T13:47:37.318Z,37.20
2022-11-28T13:50:25.085Z,37.10
2022-11-28T13:53:10.606Z,37.10
2022-11-28T13:55:46.774Z,37.00
2022-11-28T13:58:48.756Z,37.10
2022-11-28T14:01:25.108Z,37.10
2022-11-28T14:03:58.607Z,37.10
2022-11-28T14:06:40.303Z,37.20
2022-11-28T14:09:16.521Z,37.10
2022-11-28T14:12:26.148Z,37.10
2022-11-28T14:15:03.984Z,37.10
2022-11-28T14:18:24.834Z,37.10
2022-11-28T14:20:59.343Z,37.10
2022-11-28T14:24:05.194Z,37.10
2022-11-28T14:26:36.989Z,37.00
2022-11-28T14:29:08.285Z,37.10
2022-11-28T14:31:38.938Z,37.10
2022-11-28T14:34:31.197Z,37.10
2022-11-28T14:37:34.036Z,37.20
2022-11-28T14:40:01.846Z,37.10
2022-11-28T14:45:43.353Z,37.10
2022-11-28T14:48:30.813Z,37.10
2022-11-28T14:51:01.658Z,37.10
2022-11-28T14:53:48.986Z,37.20
2022-11-28T14:56:15.881Z,37.10
2022-11-28T14:58:49.094Z,37.00
2022-11-28T15:01:44.577Z,37.10
2022-11-28T15:04:27.329Z,37.10
2022-11-28T15:06:55.662Z,36.80
2022-11-28T15:10:09.725Z,36.60
2022-11-28T15:12:59.770Z,36.40
2022-11-28T15:15:30.937Z,36.60
2022-11-28T15:18:05.101Z,36.60
2022-11-28T15:20:51.581Z,36.80
2022-11-28T15:23:29.027Z,36.90
2022-11-28T15:25:58.596Z,37.00
2022-11-28T15:28:29.100Z,37.10
2022-11-28T15:31:00.528Z,37.10
2022-11-28T15:33:29.563Z,37.30
2022-11-28T15:36:26.277Z,37.40
2022-11-28T15:38:54.784Z,37.60
2022-11-28T15:41:26.158Z,37.50
2022-11-28T15:43:56.450Z,37.40
2022-11-28T15:46:33.792Z,37.40
2022-11-28T15:49:05.151Z,37.30
2022-11-28T15:51:35.829Z,37.20
2022-11-28T15:54:13.364Z,37.20
2022-11-28T15:56:57.647Z,37.10
2022-11-28T15:59:24.919Z,37.00
2022-11-28T16:01:59.404Z,37.10
2022-11-28T16:04:28.908Z,37.10
2022-11-28T16:07:00.101Z,37.00
2022-11-28T16:09:38.590Z,37.10
2022-11-28T16:12:14.243Z,37.00
2022-11-28T16:14:45.193Z,37.10
2022-11-28T16:17:27.984Z,37.10
2022-11-28T16:19:57.129Z,37.10
2022-11-28T16:22:36.971Z,37.00
2022-11-28T16:25:24.184Z,37.10
2022-11-28T16:27:53.339Z,37.10
2022-11-28T16:30:47.917Z,37.10
2022-11-28T16:33:42.474Z,37.00
2022-11-28T16:36:11.440Z,36.30
2022-11-28T16:38:39.371Z,37.10
2022-11-28T16:41:06.640Z,37.00
2022-11-28T16:43:39.521Z,37.00
2022-11-28T16:46:19.608Z,37.00
2022-11-28T16:48:56.647Z,37.20
2022-11-28T16:51:33.195Z,37.10
2022-11-28T16:54:23.304Z,37.00
2022-11-28T16:56:50.360Z,37.00
2022-11-28T16:59:20.375Z,36.90
2022-11-28T17:01:55.098Z,37.00
2022-11-28T17:04:30.729Z,37.00
2022-11-28T17:07:05.451Z,37.10
2022-11-28T17:09:34.053Z,37.00
2022-11-28T17:12:26.592Z,36.90
2022-11-28T17:14:55.201Z,36.90
2022-11-28T17:17:24.088Z,36.90
2022-11-28T17:19:51.849Z,37.00
2022-11-28T17:22:26.800Z,36.90
2022-11-28T17:25:00.730Z,36.90
2022-11-28T17:27:28.346Z,36.90
2022-11-28T17:29:55.392Z,36.90
2022-11-28T17:32:22.670Z,36.90
2022-11-28T17:34:49.883Z,36.80
2022-11-28T17:37:17.110Z,36.90
2022-11-28T17:40:04.108Z,36.90
2022-11-28T17:42:31.989Z,36.80
2022-11-28T17:44:59.369Z,36.80
2022-11-28T17:47:26.516Z,37.00
2022-11-28T17:49:53.654Z,36.80
2022-11-28T17:52:21.145Z,36.70
2022-11-28T17:54:48.143Z,36.70
2022-11-28T17:57:15.222Z,36.70
2022-11-28T17:59:42.585Z,36.70
2022-11-28T18:02:11.341Z,36.70
2022-11-28T18:04:38.646Z,36.70
2022-11-28T18:07:05.828Z,36.70
2022-11-28T18:09:32.904Z,36.70
2022-11-28T18:12:00.026Z,36.70
2022-11-28T18:14:27.020Z,36.70
2022-11-28T18:16:54.057Z,36.60
2022-11-28T18:19:31.733Z,36.60
2022-11-28T18:21:58.952Z,36.70
2022-11-28T18:24:26.061Z,36.60
2022-11-28T18:26:54.381Z,36.60
2022-11-28T18:29:21.411Z,36.70
2022-11-28T18:31:48.641Z,36.70
2022-11-28T18:34:16.720Z,37.10
2022-11-28T18:36:43.882Z,36.70
2022-11-28T18:39:15.171Z,36.60
2022-11-28T18:41:42.682Z,36.80
2022-11-28T18:44:11.605Z,36.60
2022-11-28T18:46:39.815Z,36.70
2022-11-28T18:49:08.050Z,36.80
2022-11-28T18:51:36.021Z,36.70
2022-11-28T18:54:05.773Z,36.70
2022-11-28T18:56:33.115Z,36.80
2022-11-28T18:59:00.370Z,36.80
2022-11-28T19:01:34.252Z,36.70
2022-11-28T19:04:10.067Z,36.80
2022-11-28T19:06:40.422Z,36.80
2022-11-28T19:09:12.137Z,36.80
2022-11-28T19:11:40.675Z,36.80
2022-11-28T19:14:14.679Z,36.80
2022-11-28T19:16:45.974Z,36.80
2022-11-28T19:19:13.553Z,36.80
2022-11-28T19:21:40.681Z,36.70
2022-11-28T19:24:08.579Z,36.80
2022-11-28T19:26:37.575Z,36.80
2022-11-28T19:29:06.541Z,36.90
2022-11-28T19:31:37.034Z,36.90
2022-11-28T19:34:14.904Z,37.00
2022-11-28T19:36:48.583Z,37.10
2022-11-28T19:39:19.717Z,37.70
2022-11-28T19:41:47.531Z,37.00
2022-11-28T19:44:15.801Z,36.90
2022-11-28T19:46:44.088Z,37.10
2022-11-28T19:49:19.688Z,37.00
2022-11-28T19:51:48.120Z,37.20
2022-11-28T19:54:19.691Z,37.00
2022-11-28T19:56:47.613Z,37.10
2022-11-28T19:59:15.779Z,37.10
2022-11-28T20:01:43.759Z,37.20
2022-11-28T20:04:10.870Z,37.20
2022-11-28T20:06:38.122Z,37.10
2022-11-28T20:09:10.578Z,37.10
2022-11-28T20:11:38.199Z,37.20
2022-11-28T20:14:13.644Z,37.20
2022-11-28T20:16:40.808Z,37.20
2022-11-28T20:19:08.162Z,37.10
2022-11-28T20:21:38.607Z,37.20
2022-11-28T20:24:09.881Z,37.20
2022-11-28T20:26:41.165Z,37.20
2022-11-28T20:29:13.000Z,37.20
2022-11-28T20:31:46.899Z,37.30
2022-11-28T20:34:15.851Z,37.30
2022-11-28T20:36:43.736Z,37.90
2022-11-28T20:39:12.135Z,37.30
2022-11-28T20:41:39.710Z,37.30
2022-11-28T20:44:06.802Z,37.20
2022-11-28T20:46:35.585Z,37.20
2022-11-28T20:49:05.930Z,37.30
2022-11-28T20:51:35.473Z,37.40
2022-11-28T20:54:04.880Z,37.40
2022-11-28T20:57:05.143Z,37.40
2022-11-28T20:59:26.809Z,37.40
2022-11-28T21:01:54.010Z,37.30
2022-11-28T21:04:21.186Z,37.30
2022-11-28T21:06:49.440Z,37.30
2022-11-28T21:09:20.107Z,37.50
2022-11-28T21:11:58.572Z,37.50
2022-11-28T21:14:28.000Z,37.50
2022-11-28T21:16:55.955Z,37.40
2022-11-28T21:19:23.133Z,37.40
2022-11-28T21:21:50.435Z,37.40
2022-11-28T21:24:17.552Z,37.50
2022-11-28T21:26:49.618Z,37.40
2022-11-28T21:29:18.742Z,37.50
2022-11-28T21:31:46.723Z,37.50
2022-11-28T21:34:17.130Z,37.40
2022-11-28T21:36:45.011Z,37.50
2022-11-28T21:39:20.511Z,37.50
2022-11-28T21:41:48.481Z,37.60
2022-11-28T21:44:15.638Z,37.40
2022-11-28T21:46:42.649Z,37.50
2022-11-28T21:49:12.070Z,37.60
2022-11-28T21:51:41.852Z,37.60
2022-11-28T21:54:12.972Z,37.60
2022-11-28T21:56:40.129Z,38.30
2022-11-28T21:59:10.087Z,37.60
2022-11-28T22:01:37.268Z,37.50
2022-11-28T22:04:05.228Z,37.50
2022-11-28T22:06:33.097Z,37.70
2022-11-28T22:09:08.609Z,37.60
2022-11-28T22:11:36.527Z,37.60
2022-11-28T22:14:03.661Z,37.60
2022-11-28T22:16:30.888Z,37.80
2022-11-28T22:19:00.192Z,37.40
2022-11-28T22:21:51.433Z,37.60
2022-11-28T22:24:15.336Z,37.70
2022-11-28T22:26:42.366Z,37.60
2022-11-28T22:29:09.948Z,37.60
2022-11-28T22:31:37.340Z,37.60
2022-11-28T22:34:04.345Z,37.60
2022-11-28T22:36:33.388Z,37.70
2022-11-28T22:39:01.083Z,37.70
2022-11-28T22:41:29.724Z,37.60
2022-11-28T22:44:00.677Z,37.60
2022-11-28T22:46:28.993Z,37.80
2022-11-28T22:48:56.178Z,37.70
2022-11-28T22:51:26.317Z,37.70
2022-11-28T22:54:01.444Z,37.80
2022-11-28T22:56:32.252Z,37.80
2022-11-28T22:59:00.379Z,37.80
2022-11-28T23:01:30.769Z,37.80
2022-11-28T23:03:58.810Z,37.80
2022-11-28T23:06:29.647Z,37.80
2022-11-28T23:08:59.648Z,37.90
2022-11-28T23:11:30.378Z,37.80
2022-11-28T23:13:57.516Z,37.90
2022-11-28T23:16:31.256Z,37.80
2022-11-28T23:19:02.626Z,37.90
2022-11-28T23:21:33.976Z,37.90
2022-11-28T23:24:01.331Z,37.90
2022-11-28T23:26:31.154Z,37.80
2022-11-28T23:29:04.626Z,37.80
2022-11-28T23:31:35.100Z,37.90
2022-11-28T23:34:02.457Z,37.90
2022-11-28T23:36:38.503Z,37.90
2022-11-28T23:39:16.478Z,37.90
2022-11-28T23:41:44.894Z,37.90
2022-11-28T23:44:14.437Z,37.90
2022-11-28T23:46:43.727Z,37.90
2022-11-28T23:49:12.134Z,37.90
2022-11-28T23:51:40.801Z,37.90
2022-11-28T23:54:10.082Z,37.90
2022-11-28T23:56:39.745Z,37.80
2022-11-28T23:59:09.808Z,37.90
